sensor_id;sensor_type;location;lat;lon;timestamp;temperature;humidity
29237;DHT22;16266;50.866;4.398;2023-02-28T00:01:23;0.60;99.90
29237;DHT22;16266;50.866;4.398;2023-02-28T00:03:49;0.50;99.90
29237;DHT22;16266;50.866;4.398;2023-02-28T00:06:14;0.60;99.90
29237;DHT22;16266;50.866;4.398;2023-02-28T00:08:40;0.50;99.90
29237;DHT22;16266;50.866;4.398;2023-02-28T00:11:09;0.50;99.90
29237;DHT22;16266;50.866;4.398;2023-02-28T00:13:36;0.50;99.90
29237;DHT22;16266;50.866;4.398;2023-02-28T00:16:05;0.70;99.90
29237;DHT22;16266;50.866;4.398;2023-02-28T00:18:31;0.70;99.90
29237;DHT22;16266;50.866;4.398;2023-02-28T00:20:58;0.60;99.90
29237;DHT22;16266;50.866;4.398;2023-02-28T00:23:23;0.60;99.90
29237;DHT22;16266;50.866;4.398;2023-02-28T00:25:50;0.60;99.90
29237;DHT22;16266;50.866;4.398;2023-02-28T00:28:16;0.60;99.90
29237;DHT22;16266;50.866;4.398;2023-02-28T00:30:42;0.60;99.90
29237;DHT22;16266;50.866;4.398;2023-02-28T00:33:08;0.60;99.90
29237;DHT22;16266;50.866;4.398;2023-02-28T00:35:33;0.60;99.90
29237;DHT22;16266;50.866;4.398;2023-02-28T00:37:59;0.60;99.90
29237;DHT22;16266;50.866;4.398;2023-02-28T00:40:25;0.40;99.90
29237;DHT22;16266;50.866;4.398;2023-02-28T00:42:50;0.40;99.90
29237;DHT22;16266;50.866;4.398;2023-02-28T00:45:16;0.40;99.90
29237;DHT22;16266;50.866;4.398;2023-02-28T00:47:41;0.40;99.90
29237;DHT22;16266;50.866;4.398;2023-02-28T00:50:08;0.40;99.90
29237;DHT22;16266;50.866;4.398;2023-02-28T00:52:34;0.40;99.90
29237;DHT22;16266;50.866;4.398;2023-02-28T00:54:59;0.30;99.90
29237;DHT22;16266;50.866;4.398;2023-02-28T00:57:25;0.20;99.90
29237;DHT22;16266;50.866;4.398;2023-02-28T00:59:51;0.30;99.90
29237;DHT22;16266;50.866;4.398;2023-02-28T01:02:21;0.30;99.90
29237;DHT22;16266;50.866;4.398;2023-02-28T01:04:47;0.30;99.90
29237;DHT22;16266;50.866;4.398;2023-02-28T01:07:12;0.30;99.90
29237;DHT22;16266;50.866;4.398;2023-02-28T01:09:40;0.30;99.90
29237;DHT22;16266;50.866;4.398;2023-02-28T01:12:07;0.30;99.90
29237;DHT22;16266;50.866;4.398;2023-02-28T01:14:33;0.30;99.90
29237;DHT22;16266;50.866;4.398;2023-02-28T01:17:00;0.30;99.90
29237;DHT22;16266;50.866;4.398;2023-02-28T01:19:25;0.20;99.90
29237;DHT22;16266;50.866;4.398;2023-02-28T01:21:51;0.30;99.90
29237;DHT22;16266;50.866;4.398;2023-02-28T01:24:16;0.30;99.90
29237;DHT22;16266;50.866;4.398;2023-02-28T01:26:42;0.30;99.90
29237;DHT22;16266;50.866;4.398;2023-02-28T01:29:08;0.20;99.90
29237;DHT22;16266;50.866;4.398;2023-02-28T01:31:34;0.20;99.90
29237;DHT22;16266;50.866;4.398;2023-02-28T01:33:59;0.20;99.90
29237;DHT22;16266;50.866;4.398;2023-02-28T01:36:25;0.10;99.90
29237;DHT22;16266;50.866;4.398;2023-02-28T01:38:51;0.20;99.90
29237;DHT22;16266;50.866;4.398;2023-02-28T01:41:28;0.10;99.90
29237;DHT22;16266;50.866;4.398;2023-02-28T01:46:50;0.10;99.90
29237;DHT22;16266;50.866;4.398;2023-02-28T01:49:17;0.00;99.90
29237;DHT22;16266;50.866;4.398;2023-02-28T01:51:50;-0.10;99.90
29237;DHT22;16266;50.866;4.398;2023-02-28T01:54:22;0.00;99.90
29237;DHT22;16266;50.866;4.398;2023-02-28T01:56:56;-0.10;99.90
29237;DHT22;16266;50.866;4.398;2023-02-28T02:01:57;-0.20;99.90
29237;DHT22;16266;50.866;4.398;2023-02-28T02:04:26;-0.10;99.90
29237;DHT22;16266;50.866;4.398;2023-02-28T02:06:52;-0.20;99.90
29237;DHT22;16266;50.866;4.398;2023-02-28T02:09:18;-0.20;99.90
29237;DHT22;16266;50.866;4.398;2023-02-28T02:11:46;-0.20;99.90
29237;DHT22;16266;50.866;4.398;2023-02-28T02:17:45;-0.20;99.90
29237;DHT22;16266;50.866;4.398;2023-02-28T02:36:47;-0.40;99.90
29237;DHT22;16266;50.866;4.398;2023-02-28T02:39:53;-0.40;99.90
29237;DHT22;16266;50.866;4.398;2023-02-28T02:45:03;-0.40;99.90
29237;DHT22;16266;50.866;4.398;2023-02-28T02:47:32;-0.40;99.90
29237;DHT22;16266;50.866;4.398;2023-02-28T02:50:02;-0.40;99.90
29237;DHT22;16266;50.866;4.398;2023-02-28T02:52:42;-0.40;99.90
29237;DHT22;16266;50.866;4.398;2023-02-28T02:55:11;-0.50;99.90
29237;DHT22;16266;50.866;4.398;2023-02-28T02:57:55;-0.50;99.90
29237;DHT22;16266;50.866;4.398;2023-02-28T03:00:35;-0.50;99.90
29237;DHT22;16266;50.866;4.398;2023-02-28T03:03:02;-0.50;99.90
29237;DHT22;16266;50.866;4.398;2023-02-28T03:05:49;-0.40;99.90
29237;DHT22;16266;50.866;4.398;2023-02-28T03:08:15;-0.60;99.90
29237;DHT22;16266;50.866;4.398;2023-02-28T03:10:43;-0.50;99.90
29237;DHT22;16266;50.866;4.398;2023-02-28T03:18:37;-0.40;99.90
29237;DHT22;16266;50.866;4.398;2023-02-28T03:21:34;-0.50;99.90
29237;DHT22;16266;50.866;4.398;2023-02-28T03:24:10;-0.50;99.90
29237;DHT22;16266;50.866;4.398;2023-02-28T03:26:43;-0.70;99.90
29237;DHT22;16266;50.866;4.398;2023-02-28T03:29:21;-0.60;99.90
29237;DHT22;16266;50.866;4.398;2023-02-28T03:32:38;-0.50;99.90
29237;DHT22;16266;50.866;4.398;2023-02-28T03:35:00;-0.60;99.90
29237;DHT22;16266;50.866;4.398;2023-02-28T03:37:31;-0.50;99.90
29237;DHT22;16266;50.866;4.398;2023-02-28T03:40:13;-0.60;99.90
29237;DHT22;16266;50.866;4.398;2023-02-28T03:42:43;-0.60;99.90
29237;DHT22;16266;50.866;4.398;2023-02-28T03:45:21;-0.60;99.90
29237;DHT22;16266;50.866;4.398;2023-02-28T03:47:53;-0.70;99.90
29237;DHT22;16266;50.866;4.398;2023-02-28T03:50:36;-0.80;99.90
29237;DHT22;16266;50.866;4.398;2023-02-28T03:53:14;-0.60;99.90
29237;DHT22;16266;50.866;4.398;2023-02-28T03:55:45;-0.60;99.90
29237;DHT22;16266;50.866;4.398;2023-02-28T03:58:30;-0.60;99.90
29237;DHT22;16266;50.866;4.398;2023-02-28T04:01:08;-0.60;99.90
29237;DHT22;16266;50.866;4.398;2023-02-28T04:03:36;-0.60;99.90
29237;DHT22;16266;50.866;4.398;2023-02-28T04:06:03;-0.70;99.90
29237;DHT22;16266;50.866;4.398;2023-02-28T04:08:29;-0.70;99.90
29237;DHT22;16266;50.866;4.398;2023-02-28T04:11:11;-0.70;99.90
29237;DHT22;16266;50.866;4.398;2023-02-28T04:13:38;-0.70;99.90
29237;DHT22;16266;50.866;4.398;2023-02-28T04:16:07;-0.80;99.90
29237;DHT22;16266;50.866;4.398;2023-02-28T04:18:40;-0.70;99.90
29237;DHT22;16266;50.866;4.398;2023-02-28T04:21:06;-0.60;99.90
29237;DHT22;16266;50.866;4.398;2023-02-28T04:23:32;-0.60;99.90
29237;DHT22;16266;50.866;4.398;2023-02-28T04:25:58;-0.50;99.90
29237;DHT22;16266;50.866;4.398;2023-02-28T04:28:24;-0.60;99.90
29237;DHT22;16266;50.866;4.398;2023-02-28T04:31:01;-0.60;99.90
29237;DHT22;16266;50.866;4.398;2023-02-28T04:33:27;-0.60;99.90
29237;DHT22;16266;50.866;4.398;2023-02-28T04:36:07;-0.60;99.90
29237;DHT22;16266;50.866;4.398;2023-02-28T04:38:37;-0.60;99.90
29237;DHT22;16266;50.866;4.398;2023-02-28T04:41:04;-0.60;99.90
29237;DHT22;16266;50.866;4.398;2023-02-28T04:43:30;-0.60;99.90
29237;DHT22;16266;50.866;4.398;2023-02-28T04:45:57;-0.60;99.90
29237;DHT22;16266;50.866;4.398;2023-02-28T04:48:24;-0.70;99.90
29237;DHT22;16266;50.866;4.398;2023-02-28T04:50:51;-0.60;99.90
29237;DHT22;16266;50.866;4.398;2023-02-28T04:53:17;-0.60;99.90
29237;DHT22;16266;50.866;4.398;2023-02-28T04:55:43;-0.50;99.90
29237;DHT22;16266;50.866;4.398;2023-02-28T04:58:09;-0.40;99.90
29237;DHT22;16266;50.866;4.398;2023-02-28T05:00:35;-0.40;99.90
29237;DHT22;16266;50.866;4.398;2023-02-28T05:03:00;-0.30;99.90
29237;DHT22;16266;50.866;4.398;2023-02-28T05:05:26;-0.20;99.90
29237;DHT22;16266;50.866;4.398;2023-02-28T05:07:52;-0.20;99.90
29237;DHT22;16266;50.866;4.398;2023-02-28T05:10:19;-0.10;99.90
29237;DHT22;16266;50.866;4.398;2023-02-28T05:12:44;0.00;99.90
29237;DHT22;16266;50.866;4.398;2023-02-28T05:15:14;0.10;99.90
29237;DHT22;16266;50.866;4.398;2023-02-28T05:17:40;0.20;99.90
29237;DHT22;16266;50.866;4.398;2023-02-28T05:20:08;0.20;99.90
29237;DHT22;16266;50.866;4.398;2023-02-28T05:22:36;0.20;99.90
29237;DHT22;16266;50.866;4.398;2023-02-28T05:25:03;0.30;99.90
29237;DHT22;16266;50.866;4.398;2023-02-28T05:27:30;0.40;99.90
29237;DHT22;16266;50.866;4.398;2023-02-28T05:29:56;0.40;99.90
29237;DHT22;16266;50.866;4.398;2023-02-28T05:32:22;0.50;99.90
29237;DHT22;16266;50.866;4.398;2023-02-28T05:34:48;0.60;99.90
29237;DHT22;16266;50.866;4.398;2023-02-28T05:37:14;0.70;99.90
29237;DHT22;16266;50.866;4.398;2023-02-28T05:39:41;0.70;99.90
29237;DHT22;16266;50.866;4.398;2023-02-28T05:42:07;0.70;99.90
29237;DHT22;16266;50.866;4.398;2023-02-28T05:44:33;0.70;99.90
29237;DHT22;16266;50.866;4.398;2023-02-28T05:46:59;0.60;99.90
29237;DHT22;16266;50.866;4.398;2023-02-28T05:49:24;0.70;99.90
29237;DHT22;16266;50.866;4.398;2023-02-28T05:51:50;0.70;99.90
29237;DHT22;16266;50.866;4.398;2023-02-28T05:54:16;0.70;99.90
29237;DHT22;16266;50.866;4.398;2023-02-28T05:56:41;0.60;99.90
29237;DHT22;16266;50.866;4.398;2023-02-28T05:59:13;0.80;99.90
29237;DHT22;16266;50.866;4.398;2023-02-28T06:01:42;0.90;99.90
29237;DHT22;16266;50.866;4.398;2023-02-28T06:04:10;0.90;99.90
29237;DHT22;16266;50.866;4.398;2023-02-28T06:06:36;1.00;99.90
29237;DHT22;16266;50.866;4.398;2023-02-28T06:09:04;1.00;99.90
29237;DHT22;16266;50.866;4.398;2023-02-28T06:11:32;1.00;99.90
29237;DHT22;16266;50.866;4.398;2023-02-28T06:13:59;1.10;99.90
29237;DHT22;16266;50.866;4.398;2023-02-28T06:16:26;1.10;99.90
29237;DHT22;16266;50.866;4.398;2023-02-28T06:18:52;1.10;99.90
29237;DHT22;16266;50.866;4.398;2023-02-28T06:21:18;1.10;99.90
29237;DHT22;16266;50.866;4.398;2023-02-28T06:23:44;1.20;99.90
29237;DHT22;16266;50.866;4.398;2023-02-28T06:26:10;1.20;99.90
29237;DHT22;16266;50.866;4.398;2023-02-28T06:28:36;1.30;99.90
29237;DHT22;16266;50.866;4.398;2023-02-28T06:31:13;1.40;99.90
29237;DHT22;16266;50.866;4.398;2023-02-28T06:33:40;1.30;99.90
29237;DHT22;16266;50.866;4.398;2023-02-28T06:36:07;1.30;99.90
29237;DHT22;16266;50.866;4.398;2023-02-28T06:38:33;1.20;99.90
29237;DHT22;16266;50.866;4.398;2023-02-28T06:41:00;1.30;99.90
29237;DHT22;16266;50.866;4.398;2023-02-28T06:43:28;1.30;99.90
29237;DHT22;16266;50.866;4.398;2023-02-28T06:45:58;1.40;99.90
29237;DHT22;16266;50.866;4.398;2023-02-28T06:48:25;1.40;99.90
29237;DHT22;16266;50.866;4.398;2023-02-28T06:51:00;1.50;99.90
29237;DHT22;16266;50.866;4.398;2023-02-28T06:53:26;1.70;99.90
29237;DHT22;16266;50.866;4.398;2023-02-28T06:55:51;1.80;99.90
29237;DHT22;16266;50.866;4.398;2023-02-28T06:58:17;1.80;99.90
29237;DHT22;16266;50.866;4.398;2023-02-28T07:00:50;1.80;99.90
29237;DHT22;16266;50.866;4.398;2023-02-28T07:03:16;1.80;99.90
29237;DHT22;16266;50.866;4.398;2023-02-28T07:05:42;2.10;99.90
29237;DHT22;16266;50.866;4.398;2023-02-28T07:08:08;2.60;99.90
29237;DHT22;16266;50.866;4.398;2023-02-28T07:10:34;3.30;99.90
29237;DHT22;16266;50.866;4.398;2023-02-28T07:13:00;4.20;99.90
29237;DHT22;16266;50.866;4.398;2023-02-28T07:15:26;4.70;99.90
29237;DHT22;16266;50.866;4.398;2023-02-28T07:17:51;5.30;99.90
29237;DHT22;16266;50.866;4.398;2023-02-28T07:20:17;5.60;99.90
29237;DHT22;16266;50.866;4.398;2023-02-28T07:22:43;6.10;99.90
29237;DHT22;16266;50.866;4.398;2023-02-28T07:25:09;6.30;99.90
29237;DHT22;16266;50.866;4.398;2023-02-28T07:27:34;6.00;99.90
29237;DHT22;16266;50.866;4.398;2023-02-28T07:30:00;5.70;99.90
29237;DHT22;16266;50.866;4.398;2023-02-28T07:32:27;5.80;99.90
29237;DHT22;16266;50.866;4.398;2023-02-28T07:34:53;6.20;99.90
29237;DHT22;16266;50.866;4.398;2023-02-28T07:37:19;6.40;99.90
29237;DHT22;16266;50.866;4.398;2023-02-28T07:39:45;6.70;99.90
29237;DHT22;16266;50.866;4.398;2023-02-28T07:42:11;7.70;99.90
29237;DHT22;16266;50.866;4.398;2023-02-28T07:44:38;8.30;99.90
29237;DHT22;16266;50.866;4.398;2023-02-28T07:47:07;9.20;99.90
29237;DHT22;16266;50.866;4.398;2023-02-28T07:49:35;10.20;99.90
29237;DHT22;16266;50.866;4.398;2023-02-28T07:52:01;10.00;99.90
29237;DHT22;16266;50.866;4.398;2023-02-28T07:54:27;9.90;99.90
29237;DHT22;16266;50.866;4.398;2023-02-28T07:56:52;9.50;99.90
29237;DHT22;16266;50.866;4.398;2023-02-28T07:59:18;9.70;99.90
29237;DHT22;16266;50.866;4.398;2023-02-28T08:01:44;10.40;99.90
29237;DHT22;16266;50.866;4.398;2023-02-28T08:04:10;10.70;96.70
29237;DHT22;16266;50.866;4.398;2023-02-28T08:06:35;10.50;93.90
29237;DHT22;16266;50.866;4.398;2023-02-28T08:09:01;9.90;94.90
29237;DHT22;16266;50.866;4.398;2023-02-28T08:11:27;10.40;95.20
29237;DHT22;16266;50.866;4.398;2023-02-28T08:13:54;10.90;94.20
29237;DHT22;16266;50.866;4.398;2023-02-28T08:16:20;11.40;93.30
29237;DHT22;16266;50.866;4.398;2023-02-28T08:18:48;11.90;89.50
29237;DHT22;16266;50.866;4.398;2023-02-28T08:21:14;11.50;82.70
29237;DHT22;16266;50.866;4.398;2023-02-28T08:23:39;10.80;84.70
29237;DHT22;16266;50.866;4.398;2023-02-28T08:26:05;10.80;85.60
29237;DHT22;16266;50.866;4.398;2023-02-28T08:28:31;10.30;86.10
29237;DHT22;16266;50.866;4.398;2023-02-28T08:30:57;9.60;87.80
29237;DHT22;16266;50.866;4.398;2023-02-28T08:33:24;9.70;90.60
29237;DHT22;16266;50.866;4.398;2023-02-28T08:35:54;10.80;87.30
29237;DHT22;16266;50.866;4.398;2023-02-28T08:38:20;10.90;80.20
29237;DHT22;16266;50.866;4.398;2023-02-28T08:40:46;11.10;75.00
29237;DHT22;16266;50.866;4.398;2023-02-28T08:43:11;10.40;79.70
29237;DHT22;16266;50.866;4.398;2023-02-28T08:45:37;10.10;77.40
29237;DHT22;16266;50.866;4.398;2023-02-28T08:48:03;9.40;82.00
29237;DHT22;16266;50.866;4.398;2023-02-28T08:50:29;9.40;85.30
29237;DHT22;16266;50.866;4.398;2023-02-28T08:52:54;9.80;81.20
29237;DHT22;16266;50.866;4.398;2023-02-28T08:55:20;9.90;79.40
29237;DHT22;16266;50.866;4.398;2023-02-28T08:57:45;10.00;79.60
29237;DHT22;16266;50.866;4.398;2023-02-28T09:00:12;10.50;76.90
29237;DHT22;16266;50.866;4.398;2023-02-28T09:02:39;10.90;73.50
29237;DHT22;16266;50.866;4.398;2023-02-28T09:05:06;11.20;72.30
29237;DHT22;16266;50.866;4.398;2023-02-28T09:07:31;11.50;72.10
29237;DHT22;16266;50.866;4.398;2023-02-28T09:09:57;11.30;66.60
29237;DHT22;16266;50.866;4.398;2023-02-28T09:12:27;11.30;65.40
29237;DHT22;16266;50.866;4.398;2023-02-28T09:14:53;10.70;65.60
29237;DHT22;16266;50.866;4.398;2023-02-28T09:17:19;10.20;67.90
29237;DHT22;16266;50.866;4.398;2023-02-28T09:19:47;9.70;67.30
29237;DHT22;16266;50.866;4.398;2023-02-28T09:22:12;9.90;68.30
29237;DHT22;16266;50.866;4.398;2023-02-28T09:24:38;10.00;65.50
29237;DHT22;16266;50.866;4.398;2023-02-28T09:27:04;9.90;64.80
29237;DHT22;16266;50.866;4.398;2023-02-28T09:29:31;10.00;67.00
29237;DHT22;16266;50.866;4.398;2023-02-28T09:31:57;10.20;64.00
29237;DHT22;16266;50.866;4.398;2023-02-28T09:34:24;10.50;62.30
29237;DHT22;16266;50.866;4.398;2023-02-28T09:36:50;10.30;60.50
29237;DHT22;16266;50.866;4.398;2023-02-28T09:39:20;10.60;60.60
29237;DHT22;16266;50.866;4.398;2023-02-28T09:41:50;10.80;56.90
29237;DHT22;16266;50.866;4.398;2023-02-28T09:44:36;11.60;60.10
29237;DHT22;16266;50.866;4.398;2023-02-28T09:47:48;12.50;54.50
29237;DHT22;16266;50.866;4.398;2023-02-28T09:50:38;13.60;48.90
29237;DHT22;16266;50.866;4.398;2023-02-28T09:53:20;12.60;41.90
29237;DHT22;16266;50.866;4.398;2023-02-28T09:55:58;13.00;42.50
29237;DHT22;16266;50.866;4.398;2023-02-28T09:58:36;13.10;41.20
29237;DHT22;16266;50.866;4.398;2023-02-28T10:04:00;12.70;37.20
29237;DHT22;16266;50.866;4.398;2023-02-28T10:06:30;12.60;39.40
29237;DHT22;16266;50.866;4.398;2023-02-28T10:09:06;12.30;38.00
29237;DHT22;16266;50.866;4.398;2023-02-28T10:11:36;12.50;39.40
29237;DHT22;16266;50.866;4.398;2023-02-28T10:14:14;12.00;37.60
29237;DHT22;16266;50.866;4.398;2023-02-28T10:16:42;11.70;38.40
29237;DHT22;16266;50.866;4.398;2023-02-28T10:22:11;12.60;36.60
29237;DHT22;16266;50.866;4.398;2023-02-28T10:24:47;12.30;37.20
29237;DHT22;16266;50.866;4.398;2023-02-28T10:27:31;12.60;37.80
29237;DHT22;16266;50.866;4.398;2023-02-28T10:29:59;13.00;35.80
29237;DHT22;16266;50.866;4.398;2023-02-28T10:32:29;12.90;31.90
29237;DHT22;16266;50.866;4.398;2023-02-28T10:35:00;12.40;31.90
29237;DHT22;16266;50.866;4.398;2023-02-28T10:37:27;12.00;27.70
29237;DHT22;16266;50.866;4.398;2023-02-28T10:39:53;12.00;26.70
29237;DHT22;16266;50.866;4.398;2023-02-28T10:42:25;11.10;27.50
29237;DHT22;16266;50.866;4.398;2023-02-28T10:45:11;11.60;28.60
29237;DHT22;16266;50.866;4.398;2023-02-28T10:47:49;12.20;27.60
29237;DHT22;16266;50.866;4.398;2023-02-28T10:55:40;12.20;26.00
29237;DHT22;16266;50.866;4.398;2023-02-28T10:58:28;11.80;25.50
29237;DHT22;16266;50.866;4.398;2023-02-28T11:00:54;11.10;26.70
29237;DHT22;16266;50.866;4.398;2023-02-28T11:03:28;10.80;27.10
29237;DHT22;16266;50.866;4.398;2023-02-28T11:05:54;11.00;27.90
29237;DHT22;16266;50.866;4.398;2023-02-28T11:08:20;10.80;27.80
29237;DHT22;16266;50.866;4.398;2023-02-28T11:10:54;11.20;27.30
29237;DHT22;16266;50.866;4.398;2023-02-28T11:13:24;11.80;27.00
29237;DHT22;16266;50.866;4.398;2023-02-28T11:15:51;11.90;27.90
29237;DHT22;16266;50.866;4.398;2023-02-28T11:18:21;12.50;26.40
29237;DHT22;16266;50.866;4.398;2023-02-28T11:20:53;12.50;26.30
29237;DHT22;16266;50.866;4.398;2023-02-28T11:23:20;12.40;26.20
29237;DHT22;16266;50.866;4.398;2023-02-28T11:25:54;12.60;25.90
29237;DHT22;16266;50.866;4.398;2023-02-28T11:33:52;11.40;26.50
29237;DHT22;16266;50.866;4.398;2023-02-28T11:36:30;11.20;27.00
29237;DHT22;16266;50.866;4.398;2023-02-28T11:38:59;11.10;27.20
29237;DHT22;16266;50.866;4.398;2023-02-28T11:50:25;12.10;25.60
29237;DHT22;16266;50.866;4.398;2023-02-28T11:52:56;11.40;26.10
29237;DHT22;16266;50.866;4.398;2023-02-28T11:55:48;12.00;26.60
29237;DHT22;16266;50.866;4.398;2023-02-28T12:04:25;10.90;27.10
29237;DHT22;16266;50.866;4.398;2023-02-28T12:07:22;10.30;27.80
29237;DHT22;16266;50.866;4.398;2023-02-28T12:10:48;10.10;29.10
29237;DHT22;16266;50.866;4.398;2023-02-28T12:15:17;10.80;27.30
29237;DHT22;16266;50.866;4.398;2023-02-28T12:20:29;12.50;25.90
29237;DHT22;16266;50.866;4.398;2023-02-28T12:28:38;11.90;24.60
29237;DHT22;16266;50.866;4.398;2023-02-28T12:31:20;11.40;24.90
29237;DHT22;16266;50.866;4.398;2023-02-28T12:34:09;11.00;25.60
29237;DHT22;16266;50.866;4.398;2023-02-28T12:36:37;11.10;25.20
29237;DHT22;16266;50.866;4.398;2023-02-28T12:39:26;11.10;25.30
29237;DHT22;16266;50.866;4.398;2023-02-28T12:41:59;11.30;25.60
29237;DHT22;16266;50.866;4.398;2023-02-28T12:44:36;11.40;25.70
29237;DHT22;16266;50.866;4.398;2023-02-28T12:47:05;10.80;24.80
29237;DHT22;16266;50.866;4.398;2023-02-28T12:49:58;10.50;25.80
29237;DHT22;16266;50.866;4.398;2023-02-28T12:52:35;10.10;25.70
29237;DHT22;16266;50.866;4.398;2023-02-28T13:00:13;9.60;26.30
29237;DHT22;16266;50.866;4.398;2023-02-28T13:03:09;9.30;26.60
29237;DHT22;16266;50.866;4.398;2023-02-28T13:09:01;8.70;27.80
29237;DHT22;16266;50.866;4.398;2023-02-28T13:11:40;8.60;28.50
29237;DHT22;16266;50.866;4.398;2023-02-28T13:19:28;6.90;31.00
29237;DHT22;16266;50.866;4.398;2023-02-28T13:21:55;6.70;32.80
29237;DHT22;16266;50.866;4.398;2023-02-28T13:29:37;6.80;33.80
29237;DHT22;16266;50.866;4.398;2023-02-28T13:34:44;6.30;35.10
29237;DHT22;16266;50.866;4.398;2023-02-28T13:47:43;5.90;37.10
29237;DHT22;16266;50.866;4.398;2023-02-28T14:01:21;6.00;38.70
29237;DHT22;16266;50.866;4.398;2023-02-28T14:04:43;5.90;37.80
29237;DHT22;16266;50.866;4.398;2023-02-28T14:06:48;5.90;37.70
29237;DHT22;16266;50.866;4.398;2023-02-28T14:09:31;6.00;39.60
29237;DHT22;16266;50.866;4.398;2023-02-28T14:15:01;5.90;39.10
29237;DHT22;16266;50.866;4.398;2023-02-28T14:17:27;5.90;39.60
29237;DHT22;16266;50.866;4.398;2023-02-28T14:19:53;5.80;41.20
29237;DHT22;16266;50.866;4.398;2023-02-28T14:31:00;5.60;40.60
29237;DHT22;16266;50.866;4.398;2023-02-28T14:33:41;5.60;42.60
29237;DHT22;16266;50.866;4.398;2023-02-28T14:36:27;5.60;42.60
29237;DHT22;16266;50.866;4.398;2023-02-28T14:39:06;5.60;42.50
29237;DHT22;16266;50.866;4.398;2023-02-28T14:41:38;5.50;42.90
29237;DHT22;16266;50.866;4.398;2023-02-28T14:44:27;5.60;44.00
29237;DHT22;16266;50.866;4.398;2023-02-28T14:49:28;5.60;45.40
29237;DHT22;16266;50.866;4.398;2023-02-28T14:52:22;5.50;44.50
29237;DHT22;16266;50.866;4.398;2023-02-28T14:54:57;5.50;44.80
29237;DHT22;16266;50.866;4.398;2023-02-28T14:57:26;5.40;45.40
29237;DHT22;16266;50.866;4.398;2023-02-28T15:00:30;5.40;46.50
29237;DHT22;16266;50.866;4.398;2023-02-28T15:02:58;5.40;47.30
29237;DHT22;16266;50.866;4.398;2023-02-28T15:08:05;5.30;49.10
29237;DHT22;16266;50.866;4.398;2023-02-28T15:10:31;5.30;48.80
29237;DHT22;16266;50.866;4.398;2023-02-28T15:13:00;5.30;48.70
29237;DHT22;16266;50.866;4.398;2023-02-28T15:15:49;5.20;49.00
29237;DHT22;16266;50.866;4.398;2023-02-28T15:21:15;5.30;51.40
29237;DHT22;16266;50.866;4.398;2023-02-28T15:23:44;5.30;51.50
29237;DHT22;16266;50.866;4.398;2023-02-28T15:26:20;5.20;52.40
29237;DHT22;16266;50.866;4.398;2023-02-28T15:28:51;5.20;53.50
29237;DHT22;16266;50.866;4.398;2023-02-28T15:31:21;5.20;55.20
29237;DHT22;16266;50.866;4.398;2023-02-28T15:33:57;5.30;55.20
29237;DHT22;16266;50.866;4.398;2023-02-28T15:36:29;5.30;55.20
29237;DHT22;16266;50.866;4.398;2023-02-28T15:38:58;5.30;55.20
29237;DHT22;16266;50.866;4.398;2023-02-28T15:41:37;5.30;55.20
29237;DHT22;16266;50.866;4.398;2023-02-28T15:44:29;5.30;55.20
29237;DHT22;16266;50.866;4.398;2023-02-28T15:47:11;5.20;55.10
29237;DHT22;16266;50.866;4.398;2023-02-28T15:49:47;5.20;56.00
29237;DHT22;16266;50.866;4.398;2023-02-28T15:52:19;5.10;57.10
29237;DHT22;16266;50.866;4.398;2023-02-28T15:54:46;5.10;58.80
29237;DHT22;16266;50.866;4.398;2023-02-28T15:57:19;5.10;58.30
29237;DHT22;16266;50.866;4.398;2023-02-28T15:59:57;5.10;58.90
29237;DHT22;16266;50.866;4.398;2023-02-28T16:02:35;5.10;58.40
29237;DHT22;16266;50.866;4.398;2023-02-28T16:07:40;5.00;59.60
29237;DHT22;16266;50.866;4.398;2023-02-28T16:10:08;5.00;61.80
29237;DHT22;16266;50.866;4.398;2023-02-28T16:12:36;4.90;61.30
29237;DHT22;16266;50.866;4.398;2023-02-28T16:15:06;4.90;62.50
29237;DHT22;16266;50.866;4.398;2023-02-28T16:17:38;4.80;64.00
29237;DHT22;16266;50.866;4.398;2023-02-28T16:20:22;4.80;64.70
29237;DHT22;16266;50.866;4.398;2023-02-28T16:22:47;4.80;65.70
29237;DHT22;16266;50.866;4.398;2023-02-28T16:25:24;4.80;67.20
29237;DHT22;16266;50.866;4.398;2023-02-28T16:27:53;4.80;68.50
29237;DHT22;16266;50.866;4.398;2023-02-28T16:30:23;4.70;68.60
29237;DHT22;16266;50.866;4.398;2023-02-28T16:32:49;4.70;69.80
29237;DHT22;16266;50.866;4.398;2023-02-28T16:35:16;4.70;69.40
29237;DHT22;16266;50.866;4.398;2023-02-28T16:37:43;4.70;67.90
29237;DHT22;16266;50.866;4.398;2023-02-28T16:40:20;4.60;69.30
29237;DHT22;16266;50.866;4.398;2023-02-28T16:42:48;4.60;69.90
29237;DHT22;16266;50.866;4.398;2023-02-28T16:45:26;4.60;71.50
29237;DHT22;16266;50.866;4.398;2023-02-28T16:47:53;4.50;73.70
29237;DHT22;16266;50.866;4.398;2023-02-28T16:50:22;4.40;75.30
29237;DHT22;16266;50.866;4.398;2023-02-28T16:52:48;4.40;75.90
29237;DHT22;16266;50.866;4.398;2023-02-28T16:55:15;4.30;77.90
29237;DHT22;16266;50.866;4.398;2023-02-28T16:57:42;4.30;79.20
29237;DHT22;16266;50.866;4.398;2023-02-28T17:00:13;4.30;80.10
29237;DHT22;16266;50.866;4.398;2023-02-28T17:02:39;4.20;81.70
29237;DHT22;16266;50.866;4.398;2023-02-28T17:05:05;4.10;84.10
29237;DHT22;16266;50.866;4.398;2023-02-28T17:07:32;4.10;85.40
29237;DHT22;16266;50.866;4.398;2023-02-28T17:09:58;4.00;87.20
29237;DHT22;16266;50.866;4.398;2023-02-28T17:12:25;4.00;87.80
29237;DHT22;16266;50.866;4.398;2023-02-28T17:14:51;4.00;88.80
29237;DHT22;16266;50.866;4.398;2023-02-28T17:17:20;3.90;88.80
29237;DHT22;16266;50.866;4.398;2023-02-28T17:19:46;3.90;90.00
29237;DHT22;16266;50.866;4.398;2023-02-28T17:22:12;3.80;90.20
29237;DHT22;16266;50.866;4.398;2023-02-28T17:24:37;3.80;90.70
29237;DHT22;16266;50.866;4.398;2023-02-28T17:27:03;3.80;91.00
29237;DHT22;16266;50.866;4.398;2023-02-28T17:29:29;3.70;91.50
29237;DHT22;16266;50.866;4.398;2023-02-28T17:31:55;3.70;91.70
29237;DHT22;16266;50.866;4.398;2023-02-28T17:34:21;3.60;92.30
29237;DHT22;16266;50.866;4.398;2023-02-28T17:36:49;3.50;93.00
29237;DHT22;16266;50.866;4.398;2023-02-28T17:39:16;3.40;93.60
29237;DHT22;16266;50.866;4.398;2023-02-28T17:41:52;3.50;94.00
29237;DHT22;16266;50.866;4.398;2023-02-28T17:44:19;3.40;94.40
29237;DHT22;16266;50.866;4.398;2023-02-28T17:46:45;3.40;95.30
29237;DHT22;16266;50.866;4.398;2023-02-28T17:49:12;3.30;95.90
29237;DHT22;16266;50.866;4.398;2023-02-28T17:51:38;3.30;96.30
29237;DHT22;16266;50.866;4.398;2023-02-28T17:54:03;3.20;97.00
29237;DHT22;16266;50.866;4.398;2023-02-28T17:56:30;3.20;97.50
29237;DHT22;16266;50.866;4.398;2023-02-28T17:58:56;3.20;98.10
29237;DHT22;16266;50.866;4.398;2023-02-28T18:01:23;3.10;98.80
29237;DHT22;16266;50.866;4.398;2023-02-28T18:03:50;3.10;99.10
29237;DHT22;16266;50.866;4.398;2023-02-28T18:06:21;3.00;99.70
29237;DHT22;16266;50.866;4.398;2023-02-28T18:08:47;3.00;99.90
29237;DHT22;16266;50.866;4.398;2023-02-28T18:11:13;2.80;99.90
29237;DHT22;16266;50.866;4.398;2023-02-28T18:13:48;3.00;99.90
29237;DHT22;16266;50.866;4.398;2023-02-28T18:16:15;2.90;99.90
29237;DHT22;16266;50.866;4.398;2023-02-28T18:18:41;2.90;99.90
29237;DHT22;16266;50.866;4.398;2023-02-28T18:21:09;2.80;99.90